createdAt,value
2023-11-12T00:01:41.646Z,6.56
2023-11-12T00:04:10.209Z,6.60
2023-11-12T00:06:41.996Z,6.63
2023-11-12T00:09:10.679Z,6.64
2023-11-12T00:11:39.488Z,6.63
2023-11-12T00:14:07.500Z,6.67
2023-11-12T00:16:35.639Z,6.72
2023-11-12T00:19:05.298Z,6.69
2023-11-12T00:21:33.161Z,6.68
2023-11-12T00:24:01.052Z,6.70
2023-11-12T00:26:29.461Z,6.70
2023-11-12T00:28:57.991Z,6.74
2023-11-12T00:31:25.844Z,6.75
2023-11-12T00:33:53.673Z,6.78
2023-11-12T00:36:22.855Z,6.77
2023-11-12T00:38:50.638Z,6.80
2023-11-12T00:41:20.004Z,6.81
2023-11-12T00:43:50.050Z,6.74
2023-11-12T00:46:18.351Z,6.69
2023-11-12T00:48:46.319Z,6.69
2023-11-12T00:51:14.179Z,6.67
2023-11-12T00:53:43.367Z,6.70
2023-11-12T00:56:11.285Z,6.75
2023-11-12T00:58:39.224Z,6.72
2023-11-12T01:01:08.034Z,6.72
2023-11-12T01:03:35.953Z,6.59
2023-11-12T01:06:04.510Z,6.22
2023-11-12T01:08:32.559Z,6.07
2023-11-12T01:11:04.629Z,6.09
2023-11-12T01:13:32.562Z,6.26
2023-11-12T01:16:03.063Z,6.04
2023-11-12T01:18:32.984Z,6.18
2023-11-12T01:21:00.909Z,6.18
2023-11-12T01:23:28.830Z,6.17
2023-11-12T01:25:56.695Z,6.19
2023-11-12T01:28:25.855Z,6.36
2023-11-12T01:30:53.676Z,6.40
2023-11-12T01:33:21.743Z,6.59
2023-11-12T01:35:49.594Z,6.71
2023-11-12T01:38:17.566Z,6.81
2023-11-12T01:40:45.383Z,6.88
2023-11-12T01:43:14.430Z,6.92
2023-11-12T01:45:44.673Z,7.02
2023-11-12T01:48:15.450Z,7.02
2023-11-12T01:50:44.386Z,7.00
2023-11-12T01:53:15.466Z,7.04
2023-11-12T01:55:43.878Z,7.07
2023-11-12T01:58:12.571Z,7.09
2023-11-12T02:00:41.740Z,7.07
2023-11-12T02:03:15.420Z,6.84
2023-11-12T02:05:44.682Z,6.67
2023-11-12T02:08:14.031Z,6.67
2023-11-12T02:10:44.052Z,6.84
2023-11-12T02:13:12.851Z,6.83
2023-11-12T02:15:40.820Z,6.78
2023-11-12T02:18:08.794Z,6.83
2023-11-12T02:20:45.587Z,6.83
2023-11-12T02:23:14.007Z,6.85
2023-11-12T02:25:44.273Z,6.91
2023-11-12T02:28:12.942Z,6.99
2023-11-12T02:30:42.851Z,6.97
2023-11-12T02:33:11.265Z,6.99
2023-11-12T02:35:44.081Z,7.03
2023-11-12T02:38:12.843Z,6.86
2023-11-12T02:40:40.639Z,6.94
2023-11-12T02:43:11.528Z,6.95
2023-11-12T02:45:40.132Z,6.92
2023-11-12T02:48:08.625Z,6.89
2023-11-12T02:50:37.176Z,6.88
2023-11-12T02:53:08.306Z,6.85
2023-11-12T02:55:37.332Z,6.77
2023-11-12T02:58:05.928Z,6.71
2023-11-12T03:00:35.596Z,6.72
2023-11-12T03:03:04.084Z,6.63
2023-11-12T03:05:32.768Z,6.61
2023-11-12T03:08:01.207Z,6.46
2023-11-12T03:10:29.551Z,6.45
2023-11-12T03:12:57.510Z,6.37
2023-11-12T03:15:26.710Z,6.34
2023-11-12T03:17:55.995Z,6.37
2023-11-12T03:20:24.552Z,6.30
2023-11-12T03:22:52.551Z,6.22
2023-11-12T03:25:20.376Z,6.27
2023-11-12T03:27:48.207Z,6.24
2023-11-12T03:30:16.245Z,6.04
2023-11-12T03:32:44.146Z,5.90
2023-11-12T03:35:13.655Z,5.99
2023-11-12T03:37:41.528Z,6.11
2023-11-12T03:40:10.447Z,5.74
2023-11-12T03:42:38.316Z,5.64
2023-11-12T03:45:07.286Z,5.74
2023-11-12T03:47:35.277Z,5.83
2023-11-12T03:50:04.541Z,5.80
2023-11-12T03:52:33.807Z,5.76
2023-11-12T03:55:01.713Z,5.72
2023-11-12T03:57:29.522Z,5.80
2023-11-12T03:59:57.380Z,5.74
2023-11-12T04:02:25.336Z,5.69
2023-11-12T04:04:53.614Z,5.76
2023-11-12T04:07:21.958Z,6.02
2023-11-12T04:09:51.158Z,6.17
2023-11-12T04:12:19.127Z,6.14
2023-11-12T04:14:46.990Z,6.16
2023-11-12T04:17:14.808Z,6.27
2023-11-12T04:19:42.614Z,6.25
2023-11-12T04:22:10.428Z,6.30
2023-11-12T04:24:38.306Z,6.36
2023-11-12T04:27:09.195Z,6.36
2023-11-12T04:29:37.667Z,6.38
2023-11-12T04:32:05.832Z,6.29
2023-11-12T04:34:33.647Z,6.33
2023-11-12T04:37:01.663Z,6.36
2023-11-12T04:39:29.602Z,6.33
2023-11-12T04:41:58.217Z,6.18
2023-11-12T04:44:27.461Z,6.01
2023-11-12T04:46:55.272Z,6.04
2023-11-12T04:49:25.471Z,6.11
2023-11-12T04:51:54.964Z,5.96
2023-11-12T04:54:22.867Z,5.84
2023-11-12T04:56:50.823Z,6.02
2023-11-12T04:59:18.905Z,6.21
2023-11-12T05:01:48.100Z,6.36
2023-11-12T05:04:15.969Z,6.24
2023-11-12T05:06:44.155Z,6.17
2023-11-12T05:09:12.366Z,6.23
2023-11-12T05:11:40.249Z,6.40
2023-11-12T05:14:08.924Z,6.43
2023-11-12T05:16:36.741Z,6.38
2023-11-12T05:19:07.859Z,6.35
2023-11-12T05:21:35.761Z,6.43
2023-11-12T05:24:03.593Z,6.47
2023-11-12T05:26:32.946Z,6.47
2023-11-12T05:29:00.753Z,6.46
2023-11-12T05:31:28.763Z,6.44
2023-11-12T05:33:56.608Z,6.54
2023-11-12T05:36:25.828Z,6.56
2023-11-12T05:38:53.637Z,6.62
2023-11-12T05:41:21.564Z,6.66
2023-11-12T05:43:51.641Z,6.68
2023-11-12T05:46:19.544Z,6.63
2023-11-12T05:48:47.439Z,6.70
2023-11-12T05:51:15.295Z,6.72
2023-11-12T05:53:44.761Z,6.76
2023-11-12T05:56:12.603Z,6.79
2023-11-12T05:58:40.435Z,6.75
2023-11-12T06:01:08.233Z,6.79
2023-11-12T06:03:36.158Z,6.79
2023-11-12T06:06:04.202Z,6.82
2023-11-12T06:08:32.588Z,6.84
2023-11-12T06:11:04.224Z,6.84
2023-11-12T06:13:32.030Z,6.79
2023-11-12T06:15:59.862Z,6.70
2023-11-12T06:18:27.864Z,6.76
2023-11-12T06:20:55.693Z,6.84
2023-11-12T06:23:23.534Z,6.88
2023-11-12T06:25:51.542Z,6.90
2023-11-12T06:28:23.630Z,6.93
2023-11-12T06:30:52.259Z,6.95
2023-11-12T06:33:20.314Z,6.93
2023-11-12T06:35:48.297Z,6.92
2023-11-12T06:38:16.109Z,6.92
2023-11-12T06:40:42.938Z,6.82
2023-11-12T06:43:10.794Z,6.77
2023-11-12T06:45:40.098Z,6.68
2023-11-12T06:48:08.010Z,6.65
2023-11-12T06:50:35.870Z,6.83
2023-11-12T06:53:04.478Z,6.94
2023-11-12T06:55:34.101Z,6.97
2023-11-12T06:58:01.971Z,6.96
2023-11-12T07:00:29.878Z,7.03
2023-11-12T07:02:59.095Z,7.03
2023-11-12T07:05:31.444Z,6.97
2023-11-12T07:07:59.262Z,6.99
2023-11-12T07:10:27.243Z,6.99
2023-11-12T07:12:55.107Z,6.98
2023-11-12T07:15:22.964Z,6.97
2023-11-12T07:17:50.999Z,6.98
2023-11-12T07:20:20.664Z,7.04
2023-11-12T07:22:48.629Z,7.12
2023-11-12T07:25:16.722Z,7.17
2023-11-12T07:27:45.698Z,6.79
2023-11-12T07:30:14.419Z,6.63
2023-11-12T07:32:42.314Z,6.64
2023-11-12T07:35:11.135Z,6.78
2023-11-12T07:37:42.105Z,7.01
2023-11-12T07:40:12.685Z,7.13
2023-11-12T07:42:41.389Z,7.04
2023-11-12T07:45:13.903Z,7.15
2023-11-12T07:47:43.569Z,7.26
2023-11-12T07:50:13.018Z,7.34
2023-11-12T07:52:43.343Z,7.38
2023-11-12T07:55:12.615Z,7.40
2023-11-12T07:57:40.887Z,7.45
2023-11-12T08:00:13.602Z,7.50
2023-11-12T08:02:42.081Z,7.50
2023-11-12T08:05:11.239Z,7.50
2023-11-12T08:07:39.467Z,7.53
2023-11-12T08:10:10.014Z,7.56
2023-11-12T08:12:38.960Z,7.58
2023-11-12T08:15:08.271Z,7.60
2023-11-12T08:17:36.096Z,7.70
2023-11-12T08:20:05.383Z,7.73
2023-11-12T08:22:33.665Z,7.70
2023-11-12T08:25:01.540Z,7.61
2023-11-12T08:27:31.999Z,7.59
2023-11-12T08:30:00.008Z,7.58
2023-11-12T08:32:27.869Z,7.58
2023-11-12T08:34:55.726Z,7.60
2023-11-12T08:37:23.574Z,7.67
2023-11-12T08:39:51.577Z,7.73
2023-11-12T08:42:19.416Z,7.79
2023-11-12T08:44:48.704Z,7.85
2023-11-12T08:47:16.578Z,7.89
2023-11-12T08:49:44.465Z,7.94
2023-11-12T08:52:15.874Z,8.06
2023-11-12T08:54:43.902Z,8.14
2023-11-12T08:57:11.735Z,8.24
2023-11-12T08:59:39.645Z,8.32
2023-11-12T09:02:08.867Z,8.39
2023-11-12T09:04:36.917Z,8.47
2023-11-12T09:07:05.198Z,8.54
2023-11-12T09:09:34.138Z,8.63
2023-11-12T09:12:02.269Z,8.70
2023-11-12T09:14:30.126Z,8.71
2023-11-12T09:16:58.005Z,8.71
2023-11-12T09:19:27.275Z,8.69
2023-11-12T09:21:55.895Z,8.68
2023-11-12T09:24:23.793Z,8.65
2023-11-12T09:26:51.678Z,8.63
2023-11-12T09:29:19.907Z,8.58
2023-11-12T09:31:47.734Z,8.53
2023-11-12T09:34:15.637Z,8.50
2023-11-12T09:36:44.916Z,8.54
2023-11-12T09:39:14.178Z,8.60
2023-11-12T09:41:48.788Z,8.60
2023-11-12T09:44:20.070Z,8.64
2023-11-12T09:46:58.763Z,8.48
2023-11-12T09:49:26.680Z,8.47
2023-11-12T09:51:55.882Z,8.55
2023-11-12T09:54:24.926Z,8.59
2023-11-12T09:57:03.153Z,8.60
2023-11-12T09:59:37.563Z,8.62
2023-11-12T10:02:07.499Z,8.68
2023-11-12T10:04:35.494Z,8.69
2023-11-12T10:07:06.168Z,8.74
2023-11-12T10:09:35.875Z,8.76
2023-11-12T10:12:07.533Z,8.79
2023-11-12T10:14:36.009Z,8.81
2023-11-12T10:17:08.306Z,8.90
2023-11-12T10:19:36.699Z,8.95
2023-11-12T10:22:08.185Z,8.99
2023-11-12T10:24:44.809Z,9.04
2023-11-12T10:27:15.477Z,9.11
2023-11-12T10:29:44.750Z,9.20
2023-11-12T10:32:26.534Z,9.24
2023-11-12T10:34:54.721Z,9.24
2023-11-12T10:37:24.068Z,9.28
2023-11-12T10:39:51.942Z,9.31
2023-11-12T10:42:25.944Z,9.31
2023-11-12T10:44:57.287Z,9.32
2023-11-12T10:47:27.592Z,9.36
2023-11-12T10:49:55.929Z,9.37
2023-11-12T10:52:25.584Z,9.42
2023-11-12T10:54:53.580Z,9.47
2023-11-12T10:57:25.142Z,9.53
2023-11-12T10:59:56.160Z,9.59
2023-11-12T11:02:30.044Z,9.61
2023-11-12T11:04:58.785Z,9.66
2023-11-12T11:07:27.998Z,9.75
2023-11-12T11:09:55.966Z,9.81
2023-11-12T11:12:25.845Z,9.84
2023-11-12T11:14:54.098Z,9.84
2023-11-12T11:17:37.439Z,9.85
2023-11-12T11:20:06.122Z,9.86
2023-11-12T11:22:35.358Z,9.88
2023-11-12T11:25:26.207Z,9.90
2023-11-12T11:28:21.936Z,9.89
2023-11-12T11:31:10.978Z,9.88
2023-11-12T11:33:47.814Z,9.91
2023-11-12T11:36:16.772Z,9.94
2023-11-12T11:39:24.831Z,9.92
2023-11-12T11:42:21.326Z,9.88
2023-11-12T11:44:50.864Z,9.88
2023-11-12T11:47:20.812Z,9.91
2023-11-12T11:49:50.266Z,9.98
2023-11-12T11:52:23.224Z,10.04
2023-11-12T11:54:57.352Z,10.06
2023-11-12T11:57:27.981Z,10.03
2023-11-12T11:59:57.302Z,10.02
2023-11-12T12:02:25.880Z,10.02
2023-11-12T12:04:55.504Z,9.97
2023-11-12T12:07:25.346Z,9.96
2023-11-12T12:09:59.547Z,9.99
2023-11-12T12:12:28.846Z,9.99
2023-11-12T12:14:57.116Z,10.02
2023-11-12T12:17:25.438Z,10.03
2023-11-12T12:19:53.902Z,10.04
2023-11-12T12:22:28.070Z,10.03
2023-11-12T12:24:59.883Z,10.08
2023-11-12T12:27:28.019Z,10.09
2023-11-12T12:29:56.843Z,10.11
2023-11-12T12:32:26.091Z,10.12
2023-11-12T12:34:57.799Z,10.14
2023-11-12T12:37:26.942Z,10.17
2023-11-12T12:40:01.792Z,10.16
2023-11-12T12:42:31.775Z,10.18
2023-11-12T12:45:00.291Z,10.16
2023-11-12T12:47:34.593Z,10.16
2023-11-12T12:50:16.622Z,10.15
2023-11-12T12:52:46.751Z,10.12
2023-11-12T12:55:17.751Z,10.14
2023-11-12T12:57:49.504Z,10.10
2023-11-12T13:00:18.534Z,10.08
2023-11-12T13:02:48.154Z,10.05
2023-11-12T13:05:20.433Z,10.04
2023-11-12T13:07:50.236Z,10.05
2023-11-12T13:10:21.131Z,10.09
2023-11-12T13:12:52.503Z,10.09
2023-11-12T13:15:22.198Z,10.11
2023-11-12T13:17:50.799Z,10.11
2023-11-12T13:20:20.971Z,10.09
2023-11-12T13:22:49.421Z,10.10
2023-11-12T13:25:17.231Z,10.09
2023-11-12T13:27:46.722Z,10.08
2023-11-12T13:30:17.469Z,10.10
2023-11-12T13:32:47.767Z,10.12
2023-11-12T13:35:16.824Z,10.14
2023-11-12T13:37:46.252Z,10.15
2023-11-12T13:40:16.260Z,10.17
2023-11-12T13:42:45.182Z,10.22
2023-11-12T13:45:15.530Z,10.27
2023-11-12T13:47:43.612Z,10.30
2023-11-12T13:50:14.810Z,10.34
2023-11-12T13:52:44.083Z,10.37
2023-11-12T13:55:12.656Z,10.34
2023-11-12T13:57:40.720Z,10.31
2023-11-12T14:00:12.584Z,10.27
2023-11-12T14:02:42.471Z,10.28
2023-11-12T14:05:10.564Z,10.29
2023-11-12T14:07:41.160Z,10.30
2023-11-12T14:10:11.559Z,10.28
2023-11-12T14:12:40.169Z,10.26
2023-11-12T14:15:15.896Z,10.25
2023-11-12T14:17:46.163Z,10.22
2023-11-12T14:20:21.941Z,10.24
2023-11-12T14:22:52.030Z,10.26
2023-11-12T14:25:21.241Z,10.22
2023-11-12T14:27:50.094Z,10.23
2023-11-12T14:30:19.781Z,10.23
2023-11-12T14:32:51.758Z,10.23
2023-11-12T14:35:22.577Z,10.25
2023-11-12T14:37:50.647Z,10.26
2023-11-12T14:40:18.755Z,10.28
2023-11-12T14:42:47.846Z,10.28
2023-11-12T14:47:46.901Z,10.28
2023-11-12T14:50:17.585Z,10.30
2023-11-12T14:52:45.694Z,10.28
2023-11-12T14:55:22.013Z,10.28
2023-11-12T14:57:55.363Z,10.26
2023-11-12T15:00:29.159Z,10.23
2023-11-12T15:02:58.607Z,10.25
2023-11-12T15:05:28.272Z,10.23
2023-11-12T15:07:56.196Z,10.20
2023-11-12T15:10:24.177Z,10.22
2023-11-12T15:12:52.226Z,10.21
2023-11-12T15:15:21.053Z,10.20
2023-11-12T15:17:49.604Z,10.19
2023-11-12T15:20:18.219Z,10.20
2023-11-12T15:22:47.640Z,10.14
2023-11-12T15:25:16.431Z,10.14
2023-11-12T15:27:45.995Z,10.11
2023-11-12T15:30:14.917Z,10.10
2023-11-12T15:32:43.872Z,10.05
2023-11-12T15:35:14.485Z,10.00
2023-11-12T15:37:42.621Z,9.96
2023-11-12T15:40:18.735Z,9.97
2023-11-12T15:42:49.163Z,9.97
2023-11-12T15:45:18.305Z,10.00
2023-11-12T15:47:47.943Z,10.04
2023-11-12T15:50:16.397Z,10.04
2023-11-12T15:52:45.855Z,9.99
2023-11-12T15:55:16.327Z,9.94
2023-11-12T15:57:45.328Z,9.92
2023-11-12T16:00:15.771Z,9.92
2023-11-12T16:02:44.393Z,9.95
2023-11-12T16:05:13.855Z,9.97
2023-11-12T16:07:42.509Z,9.97
2023-11-12T16:10:11.819Z,9.98
2023-11-12T16:12:41.290Z,9.97
2023-11-12T16:15:13.058Z,9.92
2023-11-12T16:17:41.775Z,9.94
2023-11-12T16:20:12.745Z,9.95
2023-11-12T16:22:40.790Z,9.93
2023-11-12T16:25:10.712Z,9.93
2023-11-12T16:27:38.868Z,9.91
2023-11-12T16:30:09.888Z,9.82
2023-11-12T16:32:38.165Z,9.84
2023-11-12T16:35:06.766Z,9.86
2023-11-12T16:37:34.630Z,9.87
2023-11-12T16:40:02.628Z,9.81
2023-11-12T16:42:30.641Z,9.79
2023-11-12T16:44:58.760Z,9.81
2023-11-12T16:47:28.364Z,9.82
2023-11-12T16:49:56.294Z,9.85
2023-11-12T16:52:24.141Z,9.86
2023-11-12T16:54:52.808Z,9.81
2023-11-12T16:57:20.692Z,9.81
2023-11-12T16:59:48.469Z,9.84
2023-11-12T17:02:17.390Z,9.81
2023-11-12T17:04:47.339Z,9.78
2023-11-12T17:07:15.350Z,9.84
2023-11-12T17:09:43.864Z,9.87
2023-11-12T17:12:13.774Z,9.88
2023-11-12T17:14:41.708Z,9.89
2023-11-12T17:17:09.579Z,9.87
2023-11-12T17:19:37.469Z,9.77
2023-11-12T17:22:06.976Z,9.65
2023-11-12T17:24:34.984Z,9.70
2023-11-12T17:27:02.857Z,9.74
2023-11-12T17:29:31.033Z,9.80
2023-11-12T17:31:58.879Z,9.81
2023-11-12T17:34:26.751Z,9.81
2023-11-12T17:36:54.593Z,9.78
2023-11-12T17:39:26.003Z,9.80
2023-11-12T17:41:54.034Z,9.80
2023-11-12T17:44:23.024Z,9.81
2023-11-12T17:46:50.923Z,9.80
2023-11-12T17:49:18.808Z,9.78
2023-11-12T17:51:47.503Z,9.81
2023-11-12T17:54:17.118Z,9.84
2023-11-12T17:56:47.232Z,9.86
2023-11-12T17:59:15.108Z,9.89
2023-11-12T18:01:42.963Z,9.91
2023-11-12T18:04:11.005Z,9.93
2023-11-12T18:06:39.863Z,9.93
2023-11-12T18:09:07.708Z,9.84
2023-11-12T18:11:35.649Z,9.85
2023-11-12T18:14:04.815Z,9.85
2023-11-12T18:16:36.554Z,9.85
2023-11-12T18:19:04.710Z,9.85
2023-11-12T18:21:32.579Z,9.86
2023-11-12T18:24:01.354Z,9.83
2023-11-12T18:26:30.238Z,9.81
2023-11-12T18:28:58.011Z,9.78
2023-11-12T18:31:27.329Z,9.78
2023-11-12T18:33:54.220Z,9.81
2023-11-12T18:36:22.094Z,9.81
2023-11-12T18:38:49.965Z,9.81
2023-11-12T18:41:18.808Z,9.80
2023-11-12T18:43:46.635Z,9.82
2023-11-12T18:46:14.656Z,9.80
2023-11-12T18:48:43.840Z,9.82
2023-11-12T18:51:11.676Z,9.81
2023-11-12T18:53:39.499Z,9.81
2023-11-12T18:56:08.380Z,9.84
2023-11-12T18:58:36.764Z,9.82
2023-11-12T19:01:04.761Z,9.84
2023-11-12T19:03:34.542Z,9.87
2023-11-12T19:06:04.021Z,9.87
2023-11-12T19:08:32.465Z,9.88
2023-11-12T19:11:01.460Z,9.86
2023-11-12T19:13:29.297Z,9.85
2023-11-12T19:15:59.852Z,9.85
2023-11-12T19:18:28.059Z,9.85
2023-11-12T19:20:55.965Z,9.81
2023-11-12T19:23:25.520Z,9.77
2023-11-12T19:25:53.408Z,9.76
2023-11-12T19:28:21.360Z,9.76
2023-11-12T19:30:49.414Z,9.77
2023-11-12T19:33:17.346Z,9.77
2023-11-12T19:35:45.218Z,9.77
2023-11-12T19:38:16.216Z,9.76
2023-11-12T19:40:45.622Z,9.74
2023-11-12T19:43:14.109Z,9.73
2023-11-12T19:45:42.052Z,9.72
2023-11-12T19:48:11.254Z,9.75
2023-11-12T19:50:40.502Z,9.75
2023-11-12T19:53:08.327Z,9.75
2023-11-12T19:55:36.376Z,9.74
2023-11-12T19:58:06.591Z,9.76
2023-11-12T20:00:35.212Z,9.78
2023-11-12T20:03:03.208Z,9.78
2023-11-12T20:05:32.540Z,9.77
2023-11-12T20:08:01.161Z,9.78
2023-11-12T20:10:28.986Z,9.77
2023-11-12T20:12:56.997Z,9.76
2023-11-12T20:15:26.224Z,9.74
2023-11-12T20:17:54.025Z,9.74
2023-11-12T20:20:22.089Z,9.74
2023-11-12T20:22:49.901Z,9.72
2023-11-12T20:25:25.034Z,9.72
2023-11-12T20:27:53.878Z,9.72
2023-11-12T20:30:22.055Z,9.73
2023-11-12T20:32:51.276Z,9.73
2023-11-12T20:35:19.385Z,9.74
2023-11-12T20:37:47.980Z,9.72
2023-11-12T20:40:16.498Z,9.73
2023-11-12T20:42:44.660Z,9.73
2023-11-12T20:45:18.367Z,9.75
2023-11-12T20:47:51.960Z,9.76
2023-11-12T20:50:23.838Z,9.72
2023-11-12T20:52:52.176Z,9.72
2023-11-12T20:55:20.179Z,9.72
2023-11-12T20:57:50.869Z,9.70
2023-11-12T21:00:21.917Z,9.70
2023-11-12T21:02:50.207Z,9.69
2023-11-12T21:05:19.814Z,9.67
2023-11-12T21:07:49.054Z,9.69
2023-11-12T21:10:17.082Z,9.68
2023-11-12T21:12:46.207Z,9.68
2023-11-12T21:15:14.954Z,9.70
2023-11-12T21:17:43.301Z,9.72
2023-11-12T21:20:13.292Z,9.73
2023-11-12T21:22:42.429Z,9.77
2023-11-12T21:25:15.496Z,9.76
2023-11-12T21:27:44.523Z,9.77
2023-11-12T21:30:15.652Z,9.77
2023-11-12T21:32:45.470Z,9.77
2023-11-12T21:35:13.433Z,9.78
2023-11-12T21:37:41.856Z,9.81
2023-11-12T21:40:12.344Z,9.83
2023-11-12T21:42:40.838Z,9.85
2023-11-12T21:45:10.581Z,9.88
2023-11-12T21:47:39.910Z,9.87
2023-11-12T21:50:08.611Z,9.86
2023-11-12T21:52:36.998Z,9.80
2023-11-12T21:55:05.323Z,9.77
2023-11-12T21:57:34.588Z,9.75
2023-11-12T22:00:03.169Z,9.73
2023-11-12T22:02:36.798Z,9.68
2023-11-12T22:05:06.018Z,9.71
2023-11-12T22:07:33.902Z,9.70
2023-11-12T22:10:01.734Z,9.73
2023-11-12T22:12:29.558Z,9.73
2023-11-12T22:14:58.778Z,9.71
2023-11-12T22:17:26.599Z,9.74
2023-11-12T22:19:54.762Z,9.77
2023-11-12T22:22:22.878Z,9.81
2023-11-12T22:24:58.153Z,9.81
2023-11-12T22:27:32.676Z,9.84
2023-11-12T22:30:01.838Z,9.91
2023-11-12T22:32:31.947Z,9.94
2023-11-12T22:35:00.814Z,9.92
2023-11-12T22:37:28.666Z,9.89
2023-11-12T22:39:56.482Z,9.91
2023-11-12T22:42:25.405Z,9.91
2023-11-12T22:44:53.204Z,9.89
2023-11-12T22:47:22.466Z,9.85
2023-11-12T22:49:50.372Z,9.86
2023-11-12T22:52:18.329Z,9.86
2023-11-12T22:54:46.206Z,9.85
2023-11-12T22:57:14.117Z,9.88
2023-11-12T22:59:42.482Z,9.89
2023-11-12T23:02:10.764Z,9.89
2023-11-12T23:04:40.232Z,9.87
2023-11-12T23:07:10.997Z,9.90
2023-11-12T23:09:39.962Z,9.93
2023-11-12T23:12:09.840Z,9.96
2023-11-12T23:14:37.628Z,9.98
2023-11-12T23:17:08.014Z,10.03
2023-11-12T23:19:35.934Z,10.05
2023-11-12T23:22:06.055Z,10.14
2023-11-12T23:24:33.899Z,10.08
2023-11-12T23:27:01.806Z,10.10
2023-11-12T23:29:35.353Z,10.09
2023-11-12T23:32:07.458Z,10.06
2023-11-12T23:34:37.237Z,10.04
2023-11-12T23:37:07.877Z,9.95
2023-11-12T23:39:37.286Z,9.96
2023-11-12T23:42:05.467Z,9.96
2023-11-12T23:44:33.353Z,9.96
2023-11-12T23:47:01.203Z,9.95
2023-11-12T23:49:29.299Z,9.98
2023-11-12T23:51:58.378Z,10.00
2023-11-12T23:54:27.576Z,10.00
2023-11-12T23:56:55.620Z,10.00
2023-11-12T23:59:23.489Z,9.99
